Main page
METAR-TAF:

METAR-TAF

Airports :

Hood Army Airfield

Fort Hood / Killeen, Texas, United States

latitude: 31-06N, longitude: 097-20W, elevation: 928 ft

Current weather observation

The report was made 56 minutes ago, at 16:55 UTC
Wind 5 mph from the South/Southwest
Temperature 88°F
Humidity 59%
Pressure 29.99 in. Hg
Visibility: 10 miles
Few clouds at a height of 3700 ft

METAR: KHLR 141655Z AUTO 20004KT 10SM FEW037 31/22 A2999 RMK AO2 SLP144 T03140215

Time: 11:51 (17:51 UTC)


TAF: missing

Weather observations and forecasts of more than 4000 airports (METAR and TAF reports).

The available stations are represented by yellow and red dots on the map.

Hover mouse over dot to see the name of the station.

Then click to see weather observations and forecasts.

To change the map : click on the green buttons with a black cross to zoom in, on the green button with a dash to zoom out, or on the green arrows for adjacent maps.


METAR-TAF: